Time;durP1;ratioP1;P1;durP2;ratioP2;P2;SDS_P1;SDS_P2;PMS_P1;PMS_P2;Temp;Humidity;BMP_temperature;BMP_pressure;BME280_temperature;BME280_humidity;BME280_pressure;Samples;Min_cycle;Max_cycle;Signal;HPM_P1;HPM_P2
2021/04/23 00:01:07;;;;;;;11.83;6.13;;;6.70;13.10;8.10;101451.00;;;;4906939;29;20529;-77
2021/04/23 00:03:40;;;;;;;12.77;6.97;;;6.70;12.60;8.10;101457.00;;;;4907718;29;20517;-77
2021/04/23 00:06:12;;;;;;;8.57;5.93;;;6.70;12.90;8.10;101451.00;;;;4907929;29;20490;-77
2021/04/23 00:08:41;;;;;;;12.93;5.63;;;6.70;13.40;8.00;101462.00;;;;4923836;29;20450;-77
2021/04/23 00:11:12;;;;;;;14.50;6.70;;;6.60;12.80;8.00;101461.00;;;;4905757;29;20532;-77
2021/04/23 00:13:41;;;;;;;9.53;5.90;;;6.60;12.50;8.00;101460.00;;;;4924592;29;20879;-77
2021/04/23 00:16:11;;;;;;;13.23;6.30;;;6.70;12.20;7.90;101463.00;;;;4908546;29;20485;-77
2021/04/23 00:18:39;;;;;;;12.87;5.93;;;6.60;11.80;7.90;68012.00;;;;4922746;29;20462;-77
2021/04/23 00:21:09;;;;;;;13.67;5.73;;;6.60;11.80;7.90;101462.00;;;;4922012;29;20971;-77
2021/04/23 00:23:36;;;;;;;10.40;5.37;;;6.80;12.00;7.90;101465.00;;;;4908970;29;20513;-78
2021/04/23 00:26:05;;;;;;;10.00;5.50;;;6.60;11.90;7.90;68009.00;;;;4907447;29;21063;-78
2021/04/23 00:28:35;;;;;;;19.23;6.97;;;6.60;11.90;7.90;101444.00;;;;4923397;29;20463;-77
2021/04/23 00:31:03;;;;;;;9.80;5.70;;;6.60;12.50;7.80;101456.00;;;;4899550;29;20450;-79
2021/04/23 00:33:32;;;;;;;8.13;5.43;;;6.50;12.40;7.80;101455.00;;;;4909077;29;20557;-78
2021/04/23 00:36:00;;;;;;;12.30;7.10;;;6.70;12.50;7.80;101454.00;;;;4914669;29;20887;-78
2021/04/23 00:38:29;;;;;;;9.80;5.60;;;6.50;12.60;7.80;101453.00;;;;4919131;29;20584;-78
2021/04/23 00:41:00;;;;;;;10.33;6.17;;;6.50;12.60;7.80;101456.00;;;;4926505;29;20462;-78
2021/04/23 00:43:31;;;;;;;9.90;6.37;;;6.50;12.20;7.80;101450.00;;;;4920602;29;20478;-78
2021/04/23 00:46:00;;;;;;;7.83;5.40;;;6.50;11.70;7.90;101460.00;;;;4916167;29;20486;-78
2021/04/23 00:48:32;;;;;;;8.47;5.63;;;6.60;11.60;7.80;101455.00;;;;4907814;29;20506;-78
2021/04/23 00:51:06;;;;;;;12.57;6.60;;;6.60;12.00;7.80;101452.00;;;;4908155;29;20459;-78
2021/04/23 00:53:39;;;;;;;10.50;7.70;;;6.50;13.90;7.70;101456.00;;;;4901577;29;20458;-78
2021/04/23 00:56:11;;;;;;;14.90;7.30;;;6.40;15.50;7.70;101464.00;;;;4907947;29;20485;-78
2021/04/23 00:58:38;;;;;;;11.17;5.50;;;6.30;16.50;7.70;101451.00;;;;4914444;29;20454;-77
2021/04/23 01:01:15;;;;;;;11.40;6.90;;;6.30;15.10;7.70;101463.00;;;;4906849;29;20461;-79
2021/04/23 01:03:43;;;;;;;17.13;7.20;;;6.30;15.70;7.60;101455.00;;;;4906999;29;20465;-78
2021/04/23 01:06:15;;;;;;;13.00;6.97;;;6.30;15.90;7.60;101454.00;;;;4904955;29;20497;-78
2021/04/23 01:08:43;;;;;;;15.47;5.87;;;6.30;16.30;7.60;101446.00;;;;4921547;29;20526;-79
2021/04/23 01:11:12;;;;;;;8.87;6.17;;;6.20;16.30;7.60;101460.00;;;;4906773;29;20868;-78
2021/04/23 01:13:41;;;;;;;11.90;6.07;;;6.10;16.60;7.50;101450.00;;;;4906262;29;20459;-78
2021/04/23 01:16:13;;;;;;;14.17;6.00;;;6.10;17.20;7.50;67914.00;;;;4899808;29;20493;-82
2021/04/23 01:18:41;;;;;;;15.13;6.47;;;6.00;18.30;7.40;101471.00;;;;4905995;29;20454;-78
2021/04/23 01:21:15;;;;;;;11.57;6.13;;;6.00;19.10;7.40;101473.00;;;;4906636;29;20545;-77
2021/04/23 01:23:46;;;;;;;8.57;5.90;;;6.00;19.40;7.40;101469.00;;;;4905933;29;20462;-78
2021/04/23 01:26:16;;;;;;;12.60;7.20;;;6.00;20.00;7.30;101463.00;;;;4898561;29;21472;-80
2021/04/23 01:28:45;;;;;;;16.83;9.10;;;5.90;22.30;7.30;101457.00;;;;4898493;29;20972;-77
2021/04/23 01:31:16;;;;;;;19.13;8.60;;;6.00;19.50;7.30;101451.00;;;;4904553;29;20584;-77
2021/04/23 01:33:47;;;;;;;14.97;8.33;;;5.90;19.20;7.30;101467.00;;;;4905806;29;20455;-80
2021/04/23 01:36:16;;;;;;;14.57;7.60;;;5.90;20.70;7.30;101455.00;;;;4897175;29;20481;-77
2021/04/23 01:38:47;;;;;;;11.50;8.00;;;5.80;21.30;7.20;101458.00;;;;4906053;29;20458;-80
2021/04/23 01:41:17;;;;;;;15.27;7.37;;;5.80;22.40;7.20;101456.00;;;;4905621;29;20462;-77
2021/04/23 01:43:45;;;;;;;12.43;7.63;;;5.70;23.20;7.10;101449.00;;;;4905769;29;20483;-80
2021/04/23 01:46:13;;;;;;;16.93;8.40;;;5.60;24.60;7.00;101454.00;;;;4897074;29;21143;-78
2021/04/23 01:48:40;;;;;;;15.97;7.60;;;5.50;25.10;7.00;101466.00;;;;4907891;29;20471;-78
2021/04/23 01:51:14;;;;;;;14.60;7.33;;;5.40;24.70;6.90;101463.00;;;;4897814;29;20938;-78
2021/04/23 01:53:43;;;;;;;15.60;8.23;;;5.40;24.90;6.90;101473.00;;;;4914617;29;20504;-78
2021/04/23 01:56:12;;;;;;;12.23;7.50;;;5.40;25.70;6.90;101467.00;;;;4917754;29;20565;-77
2021/04/23 01:58:40;;;;;;;13.60;7.27;;;5.30;25.30;6.90;101468.00;;;;4912694;29;20446;-77
2021/04/23 02:01:10;;;;;;;12.00;7.63;;;5.30;25.60;6.70;101474.00;;;;4916404;29;21208;-79
2021/04/23 02:03:39;;;;;;;17.30;7.73;;;5.20;26.60;6.80;67746.00;;;;4907393;29;20469;-78
2021/04/23 02:06:08;;;;;;;8.77;7.50;;;5.10;27.80;6.70;101478.00;;;;4906153;29;20486;-79
2021/04/23 02:08:37;;;;;;;15.10;8.33;;;5.00;28.40;6.60;101477.00;;;;4921941;29;20516;-77
2021/04/23 02:11:08;;;;;;;12.60;7.73;;;5.00;29.50;6.60;101490.00;;;;4921868;29;20459;-78
2021/04/23 02:13:38;;;;;;;15.83;7.77;;;4.90;30.00;6.50;101494.00;;;;4906115;29;20461;-77
2021/04/23 02:16:07;;;;;;;13.03;8.43;;;4.90;30.30;6.50;101478.00;;;;4905547;29;20482;-77
2021/04/23 02:18:35;;;;;;;14.80;9.27;;;4.90;30.30;6.50;101487.00;;;;4907204;29;21039;-77
2021/04/23 02:21:03;;;;;;;16.67;7.43;;;4.80;31.30;6.50;101494.00;;;;4905661;29;20458;-77
2021/04/23 02:23:31;;;;;;;12.80;7.70;;;4.90;31.50;6.50;67679.00;;;;4905019;29;20489;-78
2021/04/23 02:26:00;;;;;;;11.80;8.53;;;4.90;31.50;6.50;101502.00;;;;4906779;29;20496;-77
2021/04/23 02:28:28;;;;;;;14.17;7.37;;;4.90;31.00;6.50;101499.00;;;;4905789;29;20454;-77
2021/04/23 02:31:00;;;;;;;17.67;12.10;;;4.90;30.50;6.40;101499.00;;;;4906445;29;20470;-78
2021/04/23 02:33:28;;;;;;;17.00;10.33;;;4.90;31.30;6.40;101499.00;;;;4897443;29;20514;-79
2021/04/23 02:35:57;;;;;;;14.23;9.40;;;4.80;31.30;6.40;101498.00;;;;4906028;29;20512;-79
2021/04/23 02:38:25;;;;;;;13.83;9.20;;;4.80;32.00;6.40;67660.00;;;;4906362;29;20839;-77
2021/04/23 02:40:55;;;;;;;17.67;9.77;;;4.80;30.80;6.40;101502.00;;;;4905604;29;20473;-79
2021/04/23 02:43:27;;;;;;;17.37;11.07;;;4.80;31.40;6.30;101509.00;;;;4921165;29;20557;-77
2021/04/23 02:45:58;;;;;;;22.40;11.70;;;4.80;31.90;6.30;101505.00;;;;4905633;29;20504;-79
2021/04/23 02:48:29;;;;;;;20.13;12.90;;;4.80;31.00;6.30;101496.00;;;;4905783;29;20458;-78
2021/04/23 02:51:01;;;;;;;16.67;10.50;;;4.80;30.90;6.30;101492.00;;;;4920133;29;20956;-78
2021/04/23 02:53:29;;;;;;;17.33;9.33;;;4.70;31.60;6.30;101517.00;;;;4905406;29;20552;-78
2021/04/23 02:55:57;;;;;;;19.83;8.87;;;5.00;28.00;6.50;101498.00;;;;4904617;29;20490;-80
2021/04/23 02:58:27;;;;;;;12.03;7.37;;;5.30;26.00;6.50;101502.00;;;;4905078;29;20455;-77
2021/04/23 03:01:03;;;;;;;19.73;8.20;;;5.30;25.50;6.50;101501.00;;;;4904048;29;20870;-79
2021/04/23 03:03:30;;;;;;;13.63;8.60;;;5.40;25.40;6.50;101511.00;;;;4906272;29;20464;-78
2021/04/23 03:05:58;;;;;;;12.27;7.43;;;5.30;26.00;6.50;101497.00;;;;4905796;29;20502;-77
2021/04/23 03:08:26;;;;;;;12.60;7.93;;;5.20;26.80;6.50;101498.00;;;;4904646;29;20458;-81
2021/04/23 03:11:08;;;;;;;11.73;6.77;;;5.10;27.50;52.70;159437.00;;;;4905519;29;20797;-77
2021/04/23 03:13:36;;;;;;;10.63;7.17;;;5.10;27.10;6.40;101507.00;;;;4908234;29;20462;-78
2021/04/23 03:16:06;;;;;;;9.80;7.20;;;5.00;27.50;6.40;101517.00;;;;4909512;29;20484;-77
2021/04/23 03:18:37;;;;;;;15.30;8.13;;;5.10;26.20;6.40;101506.00;;;;4916229;29;20972;-77
2021/04/23 03:21:07;;;;;;;13.60;7.40;;;5.20;25.40;6.50;101517.00;;;;4908761;29;20481;-78
2021/04/23 03:23:35;;;;;;;13.20;6.80;;;5.20;24.70;6.50;101513.00;;;;4908773;29;20455;-78
2021/04/23 03:26:05;;;;;;;10.63;7.40;;;5.50;23.90;6.50;101506.00;;;;4909236;29;21375;-77
2021/04/23 03:28:33;;;;;;;11.80;7.37;;;5.30;23.50;6.50;101510.00;;;;4908723;29;20473;-80
2021/04/23 03:31:01;;;;;;;12.37;7.30;;;5.40;23.10;6.50;101523.00;;;;4916662;29;20458;-77
2021/04/23 03:33:30;;;;;;;11.13;6.40;;;5.40;23.40;6.40;101518.00;;;;4908557;29;20466;-80
2021/04/23 03:36:00;;;;;;;9.87;6.40;;;5.30;23.40;6.40;101529.00;;;;4909595;29;20490;-78
2021/04/23 03:38:30;;;;;;;12.27;7.87;;;5.30;24.10;6.40;101521.00;;;;4911234;29;20466;-78
2021/04/23 03:41:05;;;;;;;13.33;6.70;;;5.20;24.30;6.40;101518.00;;;;4911471;29;20454;-78
2021/04/23 03:43:32;;;;;;;12.50;8.30;;;5.20;24.50;6.30;101534.00;;;;4927819;29;20458;-77
2021/04/23 03:46:00;;;;;;;10.33;6.80;;;5.20;24.60;6.30;101533.00;;;;4928632;29;20500;-78
2021/04/23 03:48:28;;;;;;;16.80;7.53;;;5.10;25.30;6.30;101524.00;;;;4928153;29;20469;-80
2021/04/23 03:50:56;;;;;;;13.13;7.70;;;5.00;25.90;6.20;101531.00;;;;4912384;29;20454;-78
2021/04/23 03:53:24;;;;;;;14.03;7.00;;;5.00;25.20;6.20;101536.00;;;;4931911;29;20489;-77
2021/04/23 03:55:55;;;;;;;15.13;6.93;;;5.00;25.40;217.30;159363.00;;;;4935943;29;20584;-77
2021/04/23 03:58:24;;;;;;;11.40;7.67;;;5.00;25.30;6.20;101542.00;;;;4926876;29;20461;-77
2021/04/23 04:00:54;;;;;;;13.47;7.93;;;5.00;25.40;6.20;101561.00;;;;4921301;29;20936;-77
2021/04/23 04:03:24;;;;;;;12.87;7.80;;;5.00;25.40;6.20;101549.00;;;;4924804;29;20458;-77
2021/04/23 04:05:52;;;;;;;15.53;7.33;;;5.00;25.70;6.20;101550.00;;;;4907443;29;20566;-77
2021/04/23 04:08:20;;;;;;;12.07;6.80;;;4.90;25.60;6.20;101545.00;;;;4909090;29;20533;-77
2021/04/23 04:10:48;;;;;;;15.40;8.17;;;4.90;25.70;6.10;101538.00;;;;4907232;29;20454;-78
2021/04/23 04:13:16;;;;;;;12.60;7.40;;;5.00;25.70;6.10;101556.00;;;;4924436;29;20468;-77
2021/04/23 04:15:44;;;;;;;9.80;5.93;;;5.00;25.80;6.10;101556.00;;;;4923420;29;20518;-77
2021/04/23 04:18:13;;;;;;;14.87;8.03;;;5.00;25.80;6.10;101561.00;;;;4907618;29;20465;-76
2021/04/23 04:20:46;;;;;;;15.30;8.23;;;5.00;25.80;6.20;101568.00;;;;4901739;29;20461;-78
2021/04/23 04:23:17;;;;;;;10.17;7.10;;;4.90;25.80;6.20;67620.00;;;;4921571;29;20474;-78
2021/04/23 04:25:49;;;;;;;14.23;7.13;;;5.00;26.00;6.20;101564.00;;;;4924808;29;20462;-78
2021/04/23 04:28:17;;;;;;;16.23;7.40;;;5.00;26.10;6.20;101573.00;;;;4934645;29;20447;-78
2021/04/23 04:30:45;;;;;;;13.67;6.93;;;5.00;25.90;217.30;159337.00;;;;4937472;29;20446;-78
2021/04/23 04:33:14;;;;;;;15.10;6.90;;;5.00;26.00;6.20;101588.00;;;;4942296;29;20542;-77
2021/04/23 04:35:44;;;;;;;19.33;6.17;;;5.10;26.30;6.20;101576.00;;;;4929472;29;20486;-77
2021/04/23 04:38:14;;;;;;;12.10;6.30;;;5.10;26.10;6.30;67659.00;;;;4921022;29;20541;-76
2021/04/23 04:40:45;;;;;;;11.80;6.63;;;5.10;25.50;6.40;101577.00;;;;4912228;29;20553;-78
2021/04/23 04:43:17;;;;;;;9.87;6.53;;;5.20;25.10;6.40;101582.00;;;;4910862;29;20498;-78
2021/04/23 04:45:45;;;;;;;12.00;6.50;;;5.20;24.50;6.50;101580.00;;;;4909584;29;20577;-78
2021/04/23 04:48:17;;;;;;;11.93;6.70;;;5.30;24.50;6.60;101589.00;;;;4900783;29;20480;-78
2021/04/23 04:50:47;;;;;;;9.77;7.30;;;5.40;24.30;217.30;159540.00;;;;4909560;29;20458;-78
2021/04/23 04:53:17;;;;;;;12.03;7.50;;;5.40;24.00;6.70;101592.00;;;;4906835;29;20495;-79
2021/04/23 04:55:49;;;;;;;16.90;6.30;;;5.40;24.20;6.70;101599.00;;;;4907989;29;20593;-78
2021/04/23 04:58:19;;;;;;;14.03;7.20;;;5.50;23.70;6.80;101596.00;;;;4909336;29;20553;-79
2021/04/23 05:00:47;;;;;;;11.27;6.93;;;5.50;23.20;6.80;101570.00;;;;4907615;29;20478;-78
2021/04/23 05:03:14;;;;;;;17.40;8.30;;;5.60;23.10;6.90;101601.00;;;;4909449;29;20458;-78
2021/04/23 05:05:43;;;;;;;16.93;7.30;;;5.70;23.10;6.90;101605.00;;;;4907612;29;20932;-79
2021/04/23 05:08:11;;;;;;;11.20;6.53;;;5.70;22.90;6.90;101608.00;;;;4907876;29;20462;-78
2021/04/23 05:10:39;;;;;;;11.17;6.40;;;5.70;22.90;7.00;101625.00;;;;4906632;29;20468;-78
2021/04/23 05:13:07;;;;;;;15.10;6.97;;;5.70;22.50;6.90;101604.00;;;;4908359;29;20510;-78
2021/04/23 05:15:35;;;;;;;12.50;6.40;;;5.80;22.20;7.00;101626.00;;;;4907881;29;20898;-78
2021/04/23 05:18:03;;;;;;;14.37;6.90;;;5.80;22.00;7.10;101621.00;;;;4905696;29;20451;-78
2021/04/23 05:20:30;;;;;;;12.83;6.70;;;5.90;21.70;217.30;159756.00;;;;4908061;29;20579;-79
2021/04/23 05:22:58;;;;;;;10.97;6.70;;;6.00;21.10;7.20;101631.00;;;;4924011;29;20465;-79
2021/04/23 05:25:26;;;;;;;11.00;6.97;;;6.00;20.70;7.30;101629.00;;;;4922788;29;20492;-78
2021/04/23 05:27:56;;;;;;;13.97;6.73;;;6.10;20.10;7.40;101640.00;;;;4923077;29;20463;-79
2021/04/23 05:30:26;;;;;;;12.40;6.37;;;6.20;19.60;7.40;101641.00;;;;4921829;29;20454;-79
2021/04/23 05:32:55;;;;;;;8.97;6.80;;;6.20;19.30;7.50;101635.00;;;;4924939;29;20570;-78
2021/04/23 05:35:28;;;;;;;12.30;7.07;;;6.30;19.20;7.50;101644.00;;;;4921426;29;20490;-78
2021/04/23 05:37:57;;;;;;;10.30;6.13;;;6.40;19.10;217.30;159919.00;;;;4942031;29;20473;-78
2021/04/23 05:40:30;;;;;;;13.53;6.77;;;6.40;18.20;7.60;101645.00;;;;4943352;29;20533;-78
2021/04/23 05:42:59;;;;;;;11.83;7.40;;;6.40;18.10;7.60;101656.00;;;;4916622;29;20498;-78
2021/04/23 05:45:26;;;;;;;9.40;7.13;;;6.50;17.80;7.70;101634.00;;;;4917950;29;20485;-78
2021/04/23 05:47:56;;;;;;;12.60;6.17;;;6.50;17.60;7.60;101656.00;;;;4920885;29;20539;-77
2021/04/23 05:50:24;;;;;;;11.47;7.60;;;6.50;16.90;7.60;101652.00;;;;4912746;29;20533;-77
2021/04/23 05:52:51;;;;;;;14.73;6.67;;;6.50;16.90;7.80;101624.00;;;;4909723;29;20811;-78
2021/04/23 05:55:25;;;;;;;13.57;8.73;;;6.60;16.70;7.80;101662.00;;;;4904170;29;20854;-78
2021/04/23 05:57:53;;;;;;;10.60;5.87;;;6.70;16.70;7.90;101656.00;;;;4912125;29;20456;-77
2021/04/23 06:00:24;;;;;;;16.50;6.40;;;6.80;16.20;8.10;101668.00;;;;4902452;29;20584;-78
2021/04/23 06:02:53;;;;;;;9.67;6.60;;;6.90;15.80;8.20;101674.00;;;;4911447;29;20484;-77
2021/04/23 06:05:22;;;;;;;9.20;7.07;;;6.90;15.40;8.30;101669.00;;;;4911030;29;20500;-77
2021/04/23 06:07:49;;;;;;;13.50;7.80;;;7.00;15.40;8.40;101667.00;;;;4909585;29;20541;-78
2021/04/23 06:10:17;;;;;;;12.93;7.23;;;7.10;15.70;8.40;101670.00;;;;4901063;29;20518;-78
2021/04/23 06:12:44;;;;;;;12.47;7.30;;;7.10;14.60;8.40;101666.00;;;;4909646;29;21577;-78
2021/04/23 06:15:13;;;;;;;11.00;7.00;;;7.10;14.90;217.30;160285.00;;;;4900458;29;21011;-78
2021/04/23 06:17:41;;;;;;;10.30;7.30;;;7.20;13.80;8.50;101672.00;;;;4910170;29;20569;-78
2021/04/23 06:20:14;;;;;;;12.23;6.80;;;7.20;13.60;8.50;68149.00;;;;4900851;29;20462;-80
2021/04/23 06:22:42;;;;;;;10.70;6.80;;;7.30;13.30;8.60;101660.00;;;;4911567;29;20944;-79
2021/04/23 06:25:14;;;;;;;11.53;6.43;;;7.40;13.30;8.60;68173.00;;;;4911784;29;20481;-79
2021/04/23 06:27:42;;;;;;;11.80;6.83;;;7.40;13.30;8.80;101658.00;;;;4935006;29;20450;-80
2021/04/23 06:30:14;;;;;;;14.00;6.63;;;7.50;12.90;8.90;101664.00;;;;4909933;29;20466;-79
2021/04/23 06:32:44;;;;;;;10.97;6.80;;;7.60;12.50;9.00;101667.00;;;;4909590;29;20952;-80
2021/04/23 06:35:17;;;;;;;9.90;6.60;;;7.70;11.80;9.00;101665.00;;;;4925555;29;20482;-79
2021/04/23 06:37:45;;;;;;;14.30;7.30;;;7.90;11.60;9.00;101669.00;;;;4909626;29;20549;-79
2021/04/23 06:40:14;;;;;;;10.80;7.00;;;7.80;11.10;9.10;101663.00;;;;4908769;29;20469;-80
2021/04/23 06:42:42;;;;;;;10.60;7.17;;;7.90;10.90;217.30;160603.00;;;;4908864;29;20506;-79
2021/04/23 06:45:13;;;;;;;10.80;7.10;;;7.90;10.70;9.10;101676.00;;;;4908243;29;20538;-79
2021/04/23 06:47:42;;;;;;;14.40;7.10;;;7.90;10.20;9.20;101672.00;;;;4910299;29;20462;-79
2021/04/23 06:50:15;;;;;;;11.20;6.30;;;8.00;10.40;9.20;101682.00;;;;4911420;29;20454;-79
2021/04/23 06:52:42;;;;;;;11.17;6.97;;;8.10;10.10;9.30;101677.00;;;;4925818;29;20488;-79
2021/04/23 06:55:13;;;;;;;10.93;6.30;;;8.20;10.40;9.30;101682.00;;;;4912405;29;20469;-79
2021/04/23 06:57:41;;;;;;;14.47;6.77;;;8.20;9.60;217.30;160722.00;;;;4904492;29;20858;-79
2021/04/23 07:00:13;;;;;;;9.43;6.97;;;8.20;9.60;9.50;101666.00;;;;4909449;29;20466;-79
2021/04/23 07:02:40;;;;;;;7.73;6.20;;;8.30;9.30;9.60;101670.00;;;;4910043;29;20517;-79
2021/04/23 07:05:12;;;;;;;10.40;6.80;;;8.40;8.80;9.50;101676.00;;;;4921247;29;20482;-79
2021/04/23 07:07:40;;;;;;;11.20;6.70;;;8.50;8.60;9.60;101671.00;;;;4932464;29;20466;-79
2021/04/23 07:10:12;;;;;;;18.60;8.07;;;8.50;8.00;9.60;101669.00;;;;4924225;29;20468;-80
2021/04/23 07:12:40;;;;;;;11.97;5.37;;;8.50;8.20;52.70;160827.00;;;;4925973;29;20490;-79
2021/04/23 07:15:11;;;;;;;10.53;7.30;;;8.50;7.40;9.60;101691.00;;;;4943427;29;20555;-81
2021/04/23 07:17:39;;;;;;;10.67;7.20;;;8.60;7.70;52.70;160837.00;;;;4919147;29;20878;-79
2021/04/23 07:20:27;;;;;;;14.53;8.00;;;8.70;7.70;9.70;101684.00;;;;4914534;29;20987;-78
2021/04/23 07:22:55;;;;;;;13.90;7.00;;;8.80;7.00;9.70;68419.00;;;;4929247;29;20458;-78
2021/04/23 07:25:23;;;;;;;10.97;6.07;;;8.80;6.80;52.70;160950.00;;;;4911715;29;20579;-78
2021/04/23 07:27:51;;;;;;;9.97;6.00;;;8.90;6.40;10.00;101696.00;;;;4912985;29;20469;-78
2021/04/23 07:30:21;;;;;;;12.43;6.37;;;9.00;5.80;10.10;101684.00;;;;4913246;29;20470;-80
2021/04/23 07:32:49;;;;;;;12.00;6.10;;;9.10;4.70;10.20;68515.00;;;;4913754;29;20489;-79
2021/04/23 07:35:17;;;;;;;12.83;6.90;;;9.10;4.30;10.20;101685.00;;;;4913231;29;20956;-78
2021/04/23 07:37:46;;;;;;;11.33;5.83;;;9.20;4.50;10.30;101696.00;;;;4919892;29;20470;-81
2021/04/23 07:40:18;;;;;;;10.87;6.07;;;9.20;3.60;10.30;101698.00;;;;4926454;29;20509;-82
2021/04/23 07:42:46;;;;;;;10.07;6.93;;;9.20;2.90;10.30;101697.00;;;;4916123;29;20920;-81
2021/04/23 07:45:15;;;;;;;10.20;6.57;;;9.20;3.20;10.40;101696.00;;;;4926251;29;20485;-82
2021/04/23 07:47:44;;;;;;;18.20;7.00;;;9.30;3.60;10.30;101690.00;;;;4922531;29;20458;-83
2021/04/23 07:50:16;;;;;;;10.63;6.70;;;9.30;2.20;10.40;68575.00;;;;4947543;29;20453;-82
2021/04/23 07:52:46;;;;;;;14.73;6.17;;;9.40;2.50;10.30;101672.00;;;;4946104;29;20450;-81
2021/04/23 07:55:16;;;;;;;13.73;8.20;;;9.30;3.10;217.30;161114.00;;;;4939736;29;20454;-82
2021/04/23 07:57:46;;;;;;;14.40;6.77;;;9.40;3.80;10.40;101711.00;;;;4955893;29;20453;-81
2021/04/23 08:00:18;;;;;;;12.37;6.73;;;9.40;3.70;10.40;101685.00;;;;4951137;29;20466;-79
2021/04/23 08:02:47;;;;;;;14.50;6.17;;;9.40;4.00;10.40;101692.00;;;;4927106;29;20462;-79
2021/04/23 08:05:18;;;;;;;11.83;6.03;;;9.50;3.80;10.60;101712.00;;;;4928775;29;20464;-81
2021/04/23 08:08:05;;;;;;;11.87;5.63;;;9.60;3.30;10.60;101717.00;;;;4934050;29;20449;-81
2021/04/23 08:10:34;;;;;;;12.43;6.47;;;9.70;2.90;10.50;101704.00;;;;4948013;29;20474;-83
2021/04/23 08:13:02;;;;;;;13.20;6.43;;;9.70;3.00;10.60;101707.00;;;;4953722;29;20453;-80
2021/04/23 08:15:31;;;;;;;10.47;4.87;;;9.70;2.60;10.60;101695.00;;;;4944696;29;20475;-79
2021/04/23 08:17:59;;;;;;;8.77;5.97;;;9.70;2.80;10.60;101713.00;;;;4912409;29;20871;-78
2021/04/23 08:20:28;;;;;;;18.57;7.17;;;9.90;1.90;10.60;101709.00;;;;4926117;29;20454;-79
2021/04/23 08:22:57;;;;;;;12.67;7.07;;;9.70;1.80;10.80;101703.00;;;;4911785;29;20458;-78
2021/04/23 08:25:25;;;;;;;10.20;6.87;;;9.90;2.00;10.80;101687.00;;;;4910685;29;20482;-80
2021/04/23 08:27:54;;;;;;;9.80;5.47;;;10.00;1.00;10.80;101695.00;;;;4926604;29;20486;-79
2021/04/23 08:30:25;;;;;;;10.30;6.60;;;10.00;1.00;11.00;101693.00;;;;4916394;29;20458;-78
2021/04/23 08:32:53;;;;;;;11.63;6.40;;;10.00;1.00;10.90;101697.00;;;;4926890;29;20462;-78
2021/04/23 08:35:21;;;;;;;9.40;5.63;;;10.10;1.00;10.90;68668.00;;;;4927790;29;20584;-79
2021/04/23 08:37:48;;;;;;;14.33;7.10;;;9.90;1.20;10.80;101693.00;;;;4933193;29;20462;-80
2021/04/23 08:40:19;;;;;;;16.10;8.87;;;9.90;1.00;10.90;101692.00;;;;4918255;29;20472;-79
2021/04/23 08:42:48;;;;;;;15.80;9.10;;;10.00;1.00;11.00;101683.00;;;;4908393;29;20541;-83
2021/04/23 08:45:19;;;;;;;13.57;6.73;;;10.20;1.00;11.30;101682.00;;;;4908432;29;20489;-81
2021/04/23 08:47:47;;;;;;;11.90;6.70;;;10.40;1.00;11.40;101689.00;;;;4916933;29;21347;-81
2021/04/23 08:50:20;;;;;;;9.00;6.40;;;10.60;1.00;11.50;101678.00;;;;4914347;29;20462;-79
2021/04/23 08:52:49;;;;;;;10.40;5.93;;;10.60;1.00;217.30;161620.00;;;;4913027;29;20458;-79
2021/04/23 08:55:20;;;;;;;15.70;7.60;;;10.50;1.00;11.30;101682.00;;;;4914992;29;20470;-80
2021/04/23 08:58:09;;;;;;;11.63;5.63;;;10.40;1.00;217.30;161521.00;;;;4915836;29;20557;-78
2021/04/23 09:00:37;;;;;;;12.40;7.10;;;10.50;1.00;11.40;101686.00;;;;4916061;29;20457;-81
2021/04/23 09:03:06;;;;;;;12.17;7.90;;;10.60;1.00;11.80;101675.00;;;;4905527;29;20504;-80
2021/04/23 09:05:33;;;;;;;9.10;7.03;;;10.80;1.00;11.60;101686.00;;;;4929365;29;20486;-79
2021/04/23 09:08:04;;;;;;;8.27;6.50;;;10.90;1.00;11.50;101683.00;;;;4912597;29;20457;-82
2021/04/23 09:10:33;;;;;;;12.07;7.00;;;10.70;1.00;11.70;101688.00;;;;4912332;29;20466;-81
2021/04/23 09:13:16;;;;;;;12.53;6.40;;;10.90;1.00;11.80;101686.00;;;;4920288;29;20458;-81
2021/04/23 09:15:46;;;;;;;7.77;5.93;;;11.00;1.00;11.80;101683.00;;;;4902263;29;21041;-81
2021/04/23 09:18:16;;;;;;;11.57;6.20;;;11.00;1.00;11.90;101682.00;;;;4913436;29;20450;-81
2021/04/23 09:20:46;;;;;;;9.67;6.83;;;11.10;1.00;12.10;101678.00;;;;4926440;29;20486;-78
2021/04/23 09:23:17;;;;;;;10.23;6.80;;;11.40;1.00;12.10;101675.00;;;;4911967;29;21541;-81
2021/04/23 09:25:49;;;;;;;8.57;6.13;;;11.40;1.00;12.20;101684.00;;;;4914559;29;20565;-81
2021/04/23 09:28:34;;;;;;;15.97;7.53;;;11.40;1.00;12.10;101682.00;;;;4915273;29;20465;-81
2021/04/23 09:31:22;;;;;;;12.07;6.53;;;11.30;1.00;217.30;161878.00;;;;4912924;29;20545;-80
2021/04/23 09:33:51;;;;;;;9.40;7.40;;;11.40;1.00;12.10;101689.00;;;;4909070;29;20465;-78
2021/04/23 09:36:31;;;;;;;13.70;7.83;;;11.40;1.00;12.20;101678.00;;;;4925425;29;20699;-78
2021/04/23 09:39:08;;;;;;;12.93;7.83;;;11.40;1.00;12.10;101677.00;;;;4909057;29;20469;-78
2021/04/23 09:41:36;;;;;;;8.67;6.70;;;11.40;1.00;12.20;101683.00;;;;4908669;29;21546;-78
2021/04/23 09:44:25;;;;;;;12.13;7.03;;;11.50;1.00;12.30;101681.00;;;;4909554;29;20454;-78
2021/04/23 09:46:59;;;;;;;10.97;6.13;;;11.60;1.00;12.50;101686.00;;;;4909324;29;20478;-78
2021/04/23 09:49:28;;;;;;;14.03;8.27;;;11.80;1.00;12.50;101674.00;;;;4922430;29;20457;-77
2021/04/23 09:51:57;;;;;;;13.50;7.90;;;11.90;1.00;12.60;101680.00;;;;4922665;29;20561;-76
2021/04/23 09:54:25;;;;;;;15.93;7.23;;;11.90;1.00;12.50;101680.00;;;;4916449;29;20983;-76
2021/04/23 09:56:55;;;;;;;12.20;6.93;;;11.80;1.00;12.50;101672.00;;;;4910170;29;20553;-79
2021/04/23 09:59:25;;;;;;;11.97;8.40;;;11.90;1.00;12.50;101670.00;;;;4922764;29;20454;-78
2021/04/23 10:02:03;;;;;;;13.23;7.20;;;11.70;1.00;12.40;101683.00;;;;4916987;29;20450;-76
2021/04/23 10:04:34;;;;;;;11.40;7.17;;;11.80;1.00;12.40;101666.00;;;;4920314;29;20477;-77
2021/04/23 10:07:20;;;;;;;12.33;6.83;;;11.80;1.00;12.60;101662.00;;;;4921128;29;20531;-79
2021/04/23 10:09:57;;;;;;;10.57;5.90;;;11.80;1.00;12.80;101674.00;;;;4920769;29;20454;-79
2021/04/23 10:12:35;;;;;;;14.63;7.53;;;12.00;1.00;217.30;162120.00;;;;4933901;29;20530;-78
2021/04/23 10:15:17;;;;;;;7.90;5.50;;;11.90;1.00;12.60;101653.00;;;;4922476;29;20490;-77
2021/04/23 10:17:48;;;;;;;11.07;7.53;;;11.80;1.00;12.70;69090.00;;;;4924830;29;20466;-77
2021/04/23 10:20:20;;;;;;;14.43;7.97;;;12.00;1.00;12.90;101655.00;;;;4929503;29;20458;-76
2021/04/23 10:22:48;;;;;;;15.17;6.90;;;12.20;1.00;12.90;101660.00;;;;4931346;29;20462;-77
2021/04/23 10:25:16;;;;;;;9.90;7.03;;;12.20;1.00;13.00;101655.00;;;;4928970;29;20533;-78
2021/04/23 10:27:46;;;;;;;10.50;6.80;;;12.40;1.00;13.10;101662.00;;;;4924062;29;20481;-76
2021/04/23 10:30:21;;;;;;;12.13;7.80;;;12.50;1.00;13.20;101655.00;;;;4914413;29;20545;-80
2021/04/23 10:33:07;;;;;;;12.07;7.83;;;12.60;1.00;13.20;69186.00;;;;4914010;29;20538;-77
2021/04/23 10:35:37;;;;;;;12.53;7.03;;;12.60;1.00;13.20;101651.00;;;;4928042;29;20474;-77
2021/04/23 10:38:08;;;;;;;8.73;5.80;;;12.60;1.00;13.30;101659.00;;;;4903144;29;21249;-77
2021/04/23 10:40:37;;;;;;;13.57;7.90;;;12.70;1.00;13.20;101660.00;;;;4926593;29;20834;-77
2021/04/23 10:43:11;;;;;;;9.30;7.30;;;12.60;1.00;13.50;101660.00;;;;4902605;29;20489;-78
2021/04/23 10:45:44;;;;;;;11.30;7.60;;;12.80;1.00;13.80;101655.00;;;;4911932;29;20505;-79
2021/04/23 10:48:30;;;;;;;13.20;7.90;;;13.00;1.00;13.90;101672.00;;;;4925831;29;20565;-77
2021/04/23 10:51:00;;;;;;;13.13;7.77;;;13.30;1.00;14.10;101657.00;;;;4918077;29;20899;-77
2021/04/23 10:53:44;;;;;;;8.67;7.77;;;13.50;1.00;14.30;101654.00;;;;4909735;29;20458;-78
2021/04/23 10:56:28;;;;;;;11.00;8.33;;;13.80;1.00;14.10;101652.00;;;;4910835;29;20596;-77
2021/04/23 10:58:59;;;;;;;10.70;7.70;;;13.70;1.00;14.10;101657.00;;;;4909254;29;20481;-77
2021/04/23 11:01:31;;;;;;;8.73;6.80;;;13.60;1.00;14.30;101652.00;;;;4901951;29;20560;-77
2021/04/23 11:04:10;;;;;;;11.37;6.87;;;13.60;1.00;52.70;162807.00;;;;4911047;29;20514;-77
2021/04/23 11:06:39;;;;;;;8.57;6.90;;;13.50;1.00;14.20;101641.00;;;;4908904;29;20489;-77
2021/04/23 11:09:16;;;;;;;9.07;7.57;;;13.60;1.00;14.40;101657.00;;;;4909044;29;20458;-77